sensor_id;sensor_type;location;lat;lon;timestamp;pressure;altitude;pressure_sealevel;temperature;humidity
22440;BME280;11387;51.612;7.210;2023-02-28T00:00:30;102184.38;;;-1.32;80.10
22440;BME280;11387;51.612;7.210;2023-02-28T00:02:59;102179.47;;;-1.28;80.15
22440;BME280;11387;51.612;7.210;2023-02-28T00:05:28;102183.28;;;-1.23;79.84
22440;BME280;11387;51.612;7.210;2023-02-28T00:07:57;102184.56;;;-1.19;79.35
22440;BME280;11387;51.612;7.210;2023-02-28T00:10:29;102180.78;;;-1.10;78.97
22440;BME280;11387;51.612;7.210;2023-02-28T00:13:00;102185.84;;;-1.15;78.63
22440;BME280;11387;51.612;7.210;2023-02-28T00:15:29;102189.19;;;-1.13;78.29
22440;BME280;11387;51.612;7.210;2023-02-28T00:18:01;102186.59;;;-1.21;78.46
22440;BME280;11387;51.612;7.210;2023-02-28T00:20:30;102184.56;;;-1.19;78.42
22440;BME280;11387;51.612;7.210;2023-02-28T00:22:59;102190.28;;;-1.22;78.06
22440;BME280;11387;51.612;7.210;2023-02-28T00:25:30;102186.97;;;-1.24;77.89
22440;BME280;11387;51.612;7.210;2023-02-28T00:27:58;102187.06;;;-1.17;77.93
22440;BME280;11387;51.612;7.210;2023-02-28T00:30:29;102185.66;;;-1.28;77.53
22440;BME280;11387;51.612;7.210;2023-02-28T00:33:00;102191.69;;;-1.26;77.22
22440;BME280;11387;51.612;7.210;2023-02-28T00:35:29;102192.53;;;-1.11;76.93
22440;BME280;11387;51.612;7.210;2023-02-28T00:37:57;102197.53;;;-1.22;77.06
22440;BME280;11387;51.612;7.210;2023-02-28T00:40:31;102189.00;;;-1.26;76.98
22440;BME280;11387;51.612;7.210;2023-02-28T00:43:01;102195.94;;;-1.31;76.95
22440;BME280;11387;51.612;7.210;2023-02-28T00:45:32;102190.38;;;-1.30;76.94
22440;BME280;11387;51.612;7.210;2023-02-28T00:48:00;102197.78;;;-1.32;76.51
22440;BME280;11387;51.612;7.210;2023-02-28T00:50:32;102193.63;;;-1.34;76.49
22440;BME280;11387;51.612;7.210;2023-02-28T00:53:01;102194.50;;;-1.42;77.43
22440;BME280;11387;51.612;7.210;2023-02-28T00:55:32;102195.13;;;-1.55;77.22
22440;BME280;11387;51.612;7.210;2023-02-28T00:58:00;102189.94;;;-1.56;77.39
22440;BME280;11387;51.612;7.210;2023-02-28T01:00:30;102197.88;;;-1.63;77.75
22440;BME280;11387;51.612;7.210;2023-02-28T01:02:59;102195.84;;;-1.61;77.37
22440;BME280;11387;51.612;7.210;2023-02-28T01:05:30;102200.09;;;-1.66;77.24
22440;BME280;11387;51.612;7.210;2023-02-28T01:07:59;102202.78;;;-1.66;77.38
22440;BME280;11387;51.612;7.210;2023-02-28T01:10:28;102201.09;;;-1.67;77.41
22440;BME280;11387;51.612;7.210;2023-02-28T01:13:02;102192.38;;;-1.70;77.35
22440;BME280;11387;51.612;7.210;2023-02-28T01:15:33;102196.75;;;-1.68;77.64
22440;BME280;11387;51.612;7.210;2023-02-28T01:18:02;102200.13;;;-1.75;77.08
22440;BME280;11387;51.612;7.210;2023-02-28T01:20:31;102197.81;;;-1.78;77.22
22440;BME280;11387;51.612;7.210;2023-02-28T01:22:59;102193.88;;;-1.90;77.55
22440;BME280;11387;51.612;7.210;2023-02-28T01:25:28;102195.97;;;-2.00;78.28
22440;BME280;11387;51.612;7.210;2023-02-28T01:27:56;102185.94;;;-2.06;78.06
22440;BME280;11387;51.612;7.210;2023-02-28T01:30:27;102192.63;;;-2.02;78.08
22440;BME280;11387;51.612;7.210;2023-02-28T01:32:58;102186.81;;;-2.14;78.25
22440;BME280;11387;51.612;7.210;2023-02-28T01:35:27;102190.06;;;-2.18;79.07
22440;BME280;11387;51.612;7.210;2023-02-28T01:37:55;102183.03;;;-2.19;79.23
22440;BME280;11387;51.612;7.210;2023-02-28T01:40:35;102187.41;;;-2.26;79.30
22440;BME280;11387;51.612;7.210;2023-02-28T01:43:07;102182.75;;;-2.32;79.51
22440;BME280;11387;51.612;7.210;2023-02-28T01:45:49;102177.75;;;-2.44;79.66
22440;BME280;11387;51.612;7.210;2023-02-28T01:48:19;102178.59;;;-2.43;79.37
22440;BME280;11387;51.612;7.210;2023-02-28T01:50:51;102181.19;;;-2.58;80.28
22440;BME280;11387;51.612;7.210;2023-02-28T01:53:28;102167.13;;;-2.60;80.54
22440;BME280;11387;51.612;7.210;2023-02-28T01:55:59;102168.16;;;-2.69;81.22
22440;BME280;11387;51.612;7.210;2023-02-28T01:58:28;102176.72;;;-2.74;81.39
22440;BME280;11387;51.612;7.210;2023-02-28T02:00:58;102181.25;;;-2.74;81.88
22440;BME280;11387;51.612;7.210;2023-02-28T02:03:26;102165.22;;;-2.82;81.91
22440;BME280;11387;51.612;7.210;2023-02-28T02:05:55;102162.88;;;-2.85;82.19
22440;BME280;11387;51.612;7.210;2023-02-28T02:08:26;102151.84;;;-2.82;82.61
22440;BME280;11387;51.612;7.210;2023-02-28T02:10:57;102156.88;;;-2.95;82.71
22440;BME280;11387;51.612;7.210;2023-02-28T02:13:41;102154.88;;;-2.93;82.79
22440;BME280;11387;51.612;7.210;2023-02-28T02:16:24;102150.69;;;-2.96;82.93
22440;BME280;11387;51.612;7.210;2023-02-28T02:19:34;102158.91;;;-2.97;83.12
22440;BME280;11387;51.612;7.210;2023-02-28T02:22:21;102153.22;;;-3.02;83.09
22440;BME280;11387;51.612;7.210;2023-02-28T02:25:12;102159.94;;;-3.07;83.26
22440;BME280;11387;51.612;7.210;2023-02-28T02:28:04;102149.34;;;-2.92;82.64
22440;BME280;11387;51.612;7.210;2023-02-28T02:30:53;102156.03;;;-2.88;81.96
22440;BME280;11387;51.612;7.210;2023-02-28T02:33:43;102155.53;;;-2.83;81.36
22440;BME280;11387;51.612;7.210;2023-02-28T02:36:19;102156.53;;;-2.84;80.88
22440;BME280;11387;51.612;7.210;2023-02-28T02:38:52;102155.53;;;-2.83;80.83
22440;BME280;11387;51.612;7.210;2023-02-28T02:41:27;102165.59;;;-2.93;81.14
22440;BME280;11387;51.612;7.210;2023-02-28T02:44:02;102163.06;;;-2.95;80.85
22440;BME280;11387;51.612;7.210;2023-02-28T02:46:34;102160.72;;;-2.90;80.48
22440;BME280;11387;51.612;7.210;2023-02-28T02:49:08;102168.25;;;-2.85;79.88
22440;BME280;11387;51.612;7.210;2023-02-28T02:51:40;102158.63;;;-2.72;77.93
22440;BME280;11387;51.612;7.210;2023-02-28T02:54:14;102154.13;;;-2.71;77.87
22440;BME280;11387;51.612;7.210;2023-02-28T02:56:46;102152.31;;;-2.79;77.94
22440;BME280;11387;51.612;7.210;2023-02-28T02:59:18;102160.44;;;-2.64;77.88
22440;BME280;11387;51.612;7.210;2023-02-28T03:01:51;102164.81;;;-2.71;77.20
22440;BME280;11387;51.612;7.210;2023-02-28T03:04:22;102160.75;;;-2.51;76.47
22440;BME280;11387;51.612;7.210;2023-02-28T03:06:53;102160.44;;;-2.56;76.08
22440;BME280;11387;51.612;7.210;2023-02-28T03:09:22;102155.38;;;-2.51;75.65
22440;BME280;11387;51.612;7.210;2023-02-28T03:11:55;102161.69;;;-2.44;75.00
22440;BME280;11387;51.612;7.210;2023-02-28T03:14:50;102159.06;;;-2.52;75.59
22440;BME280;11387;51.612;7.210;2023-02-28T03:17:37;102154.72;;;-2.53;75.05
22440;BME280;11387;51.612;7.210;2023-02-28T03:20:16;102146.72;;;-2.61;75.43
22440;BME280;11387;51.612;7.210;2023-02-28T03:22:52;102155.09;;;-2.64;75.25
22440;BME280;11387;51.612;7.210;2023-02-28T03:25:32;102149.75;;;-2.64;75.07
22440;BME280;11387;51.612;7.210;2023-02-28T03:28:07;102156.59;;;-2.61;75.00
22440;BME280;11387;51.612;7.210;2023-02-28T03:30:42;102144.34;;;-2.56;74.95
22440;BME280;11387;51.612;7.210;2023-02-28T03:33:16;102150.38;;;-2.54;74.56
22440;BME280;11387;51.612;7.210;2023-02-28T03:35:49;102154.72;;;-2.53;74.19
22440;BME280;11387;51.612;7.210;2023-02-28T03:38:27;102155.44;;;-2.67;74.36
22440;BME280;11387;51.612;7.210;2023-02-28T03:41:14;102152.09;;;-2.69;74.43
22440;BME280;11387;51.612;7.210;2023-02-28T03:43:48;102155.47;;;-2.75;74.84
22440;BME280;11387;51.612;7.210;2023-02-28T03:46:21;102164.47;;;-2.68;74.50
22440;BME280;11387;51.612;7.210;2023-02-28T03:48:55;102164.72;;;-2.86;75.47
22440;BME280;11387;51.612;7.210;2023-02-28T03:51:27;102170.91;;;-2.85;75.58
22440;BME280;11387;51.612;7.210;2023-02-28T03:54:04;102158.88;;;-2.81;75.38
22440;BME280;11387;51.612;7.210;2023-02-28T03:56:38;102161.84;;;-2.76;75.08
22440;BME280;11387;51.612;7.210;2023-02-28T03:59:13;102162.88;;;-2.85;75.11
22440;BME280;11387;51.612;7.210;2023-02-28T04:01:45;102157.38;;;-2.92;75.51
22440;BME280;11387;51.612;7.210;2023-02-28T04:04:15;102168.25;;;-2.85;75.49
22440;BME280;11387;51.612;7.210;2023-02-28T04:06:45;102168.59;;;-2.88;75.34
22440;BME280;11387;51.612;7.210;2023-02-28T04:09:15;102166.25;;;-2.91;75.56
22440;BME280;11387;51.612;7.210;2023-02-28T04:11:45;102159.47;;;-2.71;75.58
22440;BME280;11387;51.612;7.210;2023-02-28T04:14:15;102167.22;;;-2.76;74.50
22440;BME280;11387;51.612;7.210;2023-02-28T04:16:44;102166.91;;;-2.81;74.88
22440;BME280;11387;51.612;7.210;2023-02-28T04:19:14;102165.25;;;-2.90;75.10
22440;BME280;11387;51.612;7.210;2023-02-28T04:21:44;102178.97;;;-2.85;75.32
22440;BME280;11387;51.612;7.210;2023-02-28T04:24:17;102172.78;;;-2.94;75.38
22440;BME280;11387;51.612;7.210;2023-02-28T04:26:47;102175.28;;;-2.92;75.38
22440;BME280;11387;51.612;7.210;2023-02-28T04:29:19;102179.28;;;-2.88;75.47
22440;BME280;11387;51.612;7.210;2023-02-28T04:31:48;102177.56;;;-2.73;74.81
22440;BME280;11387;51.612;7.210;2023-02-28T04:34:17;102180.13;;;-2.80;74.67
22440;BME280;11387;51.612;7.210;2023-02-28T04:36:46;102176.38;;;-2.71;74.52
22440;BME280;11387;51.612;7.210;2023-02-28T04:39:36;102180.06;;;-2.72;74.68
22440;BME280;11387;51.612;7.210;2023-02-28T04:42:04;102168.84;;;-2.67;74.85
22440;BME280;11387;51.612;7.210;2023-02-28T04:44:33;102179.88;;;-2.62;74.77
22440;BME280;11387;51.612;7.210;2023-02-28T04:47:02;102178.06;;;-2.69;74.60
22440;BME280;11387;51.612;7.210;2023-02-28T04:49:30;102168.66;;;-2.65;74.19
22440;BME280;11387;51.612;7.210;2023-02-28T04:52:00;102181.41;;;-2.67;74.38
22440;BME280;11387;51.612;7.210;2023-02-28T04:54:29;102183.75;;;-2.73;74.74
22440;BME280;11387;51.612;7.210;2023-02-28T04:57:01;102182.25;;;-2.75;75.28
22440;BME280;11387;51.612;7.210;2023-02-28T04:59:30;102175.28;;;-2.84;75.36
22440;BME280;11387;51.612;7.210;2023-02-28T05:01:58;102177.13;;;-2.93;75.70
22440;BME280;11387;51.612;7.210;2023-02-28T05:04:26;102180.63;;;-2.84;76.13
22440;BME280;11387;51.612;7.210;2023-02-28T05:06:55;102179.63;;;-2.91;75.63
22440;BME280;11387;51.612;7.210;2023-02-28T05:09:24;102182.31;;;-2.83;75.94
22440;BME280;11387;51.612;7.210;2023-02-28T05:11:52;102189.34;;;-2.90;76.19
22440;BME280;11387;51.612;7.210;2023-02-28T05:14:22;102182.47;;;-2.93;76.55
22440;BME280;11387;51.612;7.210;2023-02-28T05:16:50;102184.34;;;-3.01;76.44
22440;BME280;11387;51.612;7.210;2023-02-28T05:19:19;102179.63;;;-2.91;76.98
22440;BME280;11387;51.612;7.210;2023-02-28T05:21:50;102187.00;;;-2.93;76.93
22440;BME280;11387;51.612;7.210;2023-02-28T05:24:19;102190.34;;;-2.91;76.90
22440;BME280;11387;51.612;7.210;2023-02-28T05:26:51;102191.03;;;-2.97;76.96
22440;BME280;11387;51.612;7.210;2023-02-28T05:29:22;102190.38;;;-2.99;76.97
22440;BME280;11387;51.612;7.210;2023-02-28T05:31:53;102191.09;;;-3.14;77.55
22440;BME280;11387;51.612;7.210;2023-02-28T05:34:22;102203.13;;;-3.10;77.81
22440;BME280;11387;51.612;7.210;2023-02-28T05:36:50;102193.72;;;-3.06;77.50
22440;BME280;11387;51.612;7.210;2023-02-28T05:39:19;102194.41;;;-3.12;77.98
22440;BME280;11387;51.612;7.210;2023-02-28T05:41:49;102195.25;;;-3.11;77.47
22440;BME280;11387;51.612;7.210;2023-02-28T05:44:17;102194.09;;;-3.09;77.55
22440;BME280;11387;51.612;7.210;2023-02-28T05:46:47;102203.63;;;-3.14;77.69
22440;BME280;11387;51.612;7.210;2023-02-28T05:49:15;102204.63;;;-3.15;77.84
22440;BME280;11387;51.612;7.210;2023-02-28T05:51:46;102213.00;;;-3.10;77.63
22440;BME280;11387;51.612;7.210;2023-02-28T05:54:14;102214.34;;;-3.14;78.12
22440;BME280;11387;51.612;7.210;2023-02-28T05:56:43;102208.47;;;-3.10;77.88
22440;BME280;11387;51.612;7.210;2023-02-28T05:59:13;102205.75;;;-3.01;78.00
22440;BME280;11387;51.612;7.210;2023-02-28T06:01:43;102220.03;;;-3.09;77.74
22440;BME280;11387;51.612;7.210;2023-02-28T06:04:18;102215.34;;;-3.15;78.05
22440;BME280;11387;51.612;7.210;2023-02-28T06:06:57;102219.53;;;-3.13;78.46
22440;BME280;11387;51.612;7.210;2023-02-28T06:09:26;102220.19;;;-3.11;78.04
22440;BME280;11387;51.612;7.210;2023-02-28T06:11:57;102219.31;;;-3.03;77.84
22440;BME280;11387;51.612;7.210;2023-02-28T06:14:26;102224.19;;;-3.07;77.79
22440;BME280;11387;51.612;7.210;2023-02-28T06:16:54;102218.50;;;-3.12;78.20
22440;BME280;11387;51.612;7.210;2023-02-28T06:19:32;102225.22;;;-3.08;78.06
22440;BME280;11387;51.612;7.210;2023-02-28T06:22:02;102222.16;;;-3.05;77.81
22440;BME280;11387;51.612;7.210;2023-02-28T06:24:30;102231.41;;;-3.07;77.89
22440;BME280;11387;51.612;7.210;2023-02-28T06:27:02;102229.72;;;-3.08;77.61
22440;BME280;11387;51.612;7.210;2023-02-28T06:29:33;102222.47;;;-2.91;77.42
22440;BME280;11387;51.612;7.210;2023-02-28T06:32:02;102229.00;;;-2.86;77.20
22440;BME280;11387;51.612;7.210;2023-02-28T06:34:32;102228.66;;;-2.83;76.47
22440;BME280;11387;51.612;7.210;2023-02-28T06:37:02;102233.69;;;-2.80;76.70
22440;BME280;11387;51.612;7.210;2023-02-28T06:39:31;102232.00;;;-2.81;76.72
22440;BME280;11387;51.612;7.210;2023-02-28T06:41:59;102227.50;;;-2.80;76.39
22440;BME280;11387;51.612;7.210;2023-02-28T06:44:28;102239.69;;;-2.78;76.44
22440;BME280;11387;51.612;7.210;2023-02-28T06:47:04;102236.03;;;-2.77;76.43
22440;BME280;11387;51.612;7.210;2023-02-28T06:49:35;102236.31;;;-2.72;76.01
22440;BME280;11387;51.612;7.210;2023-02-28T06:52:04;102237.13;;;-2.55;76.36
22440;BME280;11387;51.612;7.210;2023-02-28T06:54:32;102235.06;;;-1.37;73.43
22440;BME280;11387;51.612;7.210;2023-02-28T06:57:01;102237.47;;;-0.02;67.69
22440;BME280;11387;51.612;7.210;2023-02-28T06:59:31;102245.25;;;1.28;63.20
22440;BME280;11387;51.612;7.210;2023-02-28T07:01:59;102239.66;;;2.18;58.96
22440;BME280;11387;51.612;7.210;2023-02-28T07:04:29;102229.16;;;2.96;56.25
22440;BME280;11387;51.612;7.210;2023-02-28T07:06:59;102229.44;;;3.59;52.93
22440;BME280;11387;51.612;7.210;2023-02-28T07:09:27;102232.38;;;4.02;50.77
22440;BME280;11387;51.612;7.210;2023-02-28T07:11:58;102231.47;;;4.21;49.86
22440;BME280;11387;51.612;7.210;2023-02-28T07:14:28;102238.06;;;4.63;49.53
22440;BME280;11387;51.612;7.210;2023-02-28T07:16:56;102235.16;;;5.15;47.30
22440;BME280;11387;51.612;7.210;2023-02-28T07:19:25;102240.63;;;6.06;45.90
22440;BME280;11387;51.612;7.210;2023-02-28T07:21:54;102233.84;;;6.57;44.09
22440;BME280;11387;51.612;7.210;2023-02-28T07:24:24;102244.19;;;6.90;41.99
22440;BME280;11387;51.612;7.210;2023-02-28T07:26:56;102237.25;;;7.29;41.32
22440;BME280;11387;51.612;7.210;2023-02-28T07:29:24;102241.97;;;7.97;40.31
22440;BME280;11387;51.612;7.210;2023-02-28T07:31:53;102238.25;;;8.15;39.04
22440;BME280;11387;51.612;7.210;2023-02-28T07:34:22;102239.31;;;9.04;37.81
22440;BME280;11387;51.612;7.210;2023-02-28T07:36:52;102240.59;;;10.39;36.02
22440;BME280;11387;51.612;7.210;2023-02-28T07:39:22;102239.94;;;10.86;34.03
22440;BME280;11387;51.612;7.210;2023-02-28T07:41:51;102249.63;;;10.98;33.93
22440;BME280;11387;51.612;7.210;2023-02-28T07:44:20;102248.44;;;11.68;31.70
22440;BME280;11387;51.612;7.210;2023-02-28T07:46:48;102248.72;;;11.25;32.42
22440;BME280;11387;51.612;7.210;2023-02-28T07:49:17;102247.47;;;11.95;30.98
22440;BME280;11387;51.612;7.210;2023-02-28T07:51:45;102251.19;;;11.73;30.83
22440;BME280;11387;51.612;7.210;2023-02-28T07:54:14;102246.88;;;11.35;32.27
22440;BME280;11387;51.612;7.210;2023-02-28T07:56:43;102250.28;;;11.16;31.71
22440;BME280;11387;51.612;7.210;2023-02-28T07:59:13;102252.53;;;12.18;29.68
22440;BME280;11387;51.612;7.210;2023-02-28T08:01:41;102251.47;;;11.72;30.60
22440;BME280;11387;51.612;7.210;2023-02-28T08:04:11;102252.47;;;11.13;31.18
22440;BME280;11387;51.612;7.210;2023-02-28T08:06:40;102250.28;;;11.53;30.66
22440;BME280;11387;51.612;7.210;2023-02-28T08:09:09;102252.38;;;11.83;30.33
22440;BME280;11387;51.612;7.210;2023-02-28T08:11:42;102249.97;;;11.91;29.97
22440;BME280;11387;51.612;7.210;2023-02-28T08:14:10;102251.81;;;11.80;30.67
22440;BME280;11387;51.612;7.210;2023-02-28T08:16:40;102250.88;;;12.17;29.11
22440;BME280;11387;51.612;7.210;2023-02-28T08:19:10;102255.03;;;13.67;27.77
22440;BME280;11387;51.612;7.210;2023-02-28T08:21:38;102250.41;;;13.52;27.72
22440;BME280;11387;51.612;7.210;2023-02-28T08:24:07;102245.09;;;12.24;28.73
22440;BME280;11387;51.612;7.210;2023-02-28T08:26:35;102249.91;;;13.20;27.18
22440;BME280;11387;51.612;7.210;2023-02-28T08:29:04;102253.16;;;12.66;27.42
22440;BME280;11387;51.612;7.210;2023-02-28T08:31:33;102259.28;;;11.11;29.95
22440;BME280;11387;51.612;7.210;2023-02-28T08:34:06;102254.75;;;11.69;29.95
22440;BME280;11387;51.612;7.210;2023-02-28T08:36:35;102251.78;;;12.58;28.57
22440;BME280;11387;51.612;7.210;2023-02-28T08:39:05;102252.22;;;14.86;26.38
22440;BME280;11387;51.612;7.210;2023-02-28T08:41:35;102247.72;;;15.58;24.91
22440;BME280;11387;51.612;7.210;2023-02-28T08:44:04;102249.88;;;16.27;24.85
22440;BME280;11387;51.612;7.210;2023-02-28T08:46:32;102243.63;;;16.40;24.14
22440;BME280;11387;51.612;7.210;2023-02-28T08:49:01;102241.81;;;17.20;22.96
22440;BME280;11387;51.612;7.210;2023-02-28T08:51:31;102240.81;;;17.29;22.93
22440;BME280;11387;51.612;7.210;2023-02-28T08:54:00;102249.38;;;16.81;22.93
22440;BME280;11387;51.612;7.210;2023-02-28T08:56:29;102246.03;;;17.31;22.67
22440;BME280;11387;51.612;7.210;2023-02-28T08:58:57;102251.16;;;17.70;22.16
22440;BME280;11387;51.612;7.210;2023-02-28T09:01:28;102240.41;;;18.32;20.75
22440;BME280;11387;51.612;7.210;2023-02-28T09:03:58;102243.25;;;19.21;20.25
22440;BME280;11387;51.612;7.210;2023-02-28T09:06:27;102237.78;;;18.85;19.84
22440;BME280;11387;51.612;7.210;2023-02-28T09:08:58;102239.25;;;18.60;19.67
22440;BME280;11387;51.612;7.210;2023-02-28T09:11:30;102245.59;;;19.05;19.19
22440;BME280;11387;51.612;7.210;2023-02-28T09:14:00;102243.66;;;17.84;20.12
22440;BME280;11387;51.612;7.210;2023-02-28T09:16:33;102237.28;;;15.78;22.47
22440;BME280;11387;51.612;7.210;2023-02-28T09:19:13;102244.41;;;14.09;24.29
22440;BME280;11387;51.612;7.210;2023-02-28T09:21:41;102243.31;;;13.31;25.95
22440;BME280;11387;51.612;7.210;2023-02-28T09:24:11;102234.59;;;17.51;21.91
22440;BME280;11387;51.612;7.210;2023-02-28T09:26:41;102230.91;;;19.05;19.44
22440;BME280;11387;51.612;7.210;2023-02-28T09:29:30;102231.78;;;19.45;19.22
22440;BME280;11387;51.612;7.210;2023-02-28T09:32:00;102230.47;;;19.11;19.01
22440;BME280;11387;51.612;7.210;2023-02-28T09:34:29;102232.38;;;18.44;19.11
22440;BME280;11387;51.612;7.210;2023-02-28T09:36:58;102236.72;;;17.27;20.22
22440;BME280;11387;51.612;7.210;2023-02-28T09:39:33;102238.50;;;15.38;22.19
22440;BME280;11387;51.612;7.210;2023-02-28T09:42:03;102231.88;;;17.18;20.14
22440;BME280;11387;51.612;7.210;2023-02-28T09:44:35;102238.00;;;17.15;20.60
22440;BME280;11387;51.612;7.210;2023-02-28T09:47:08;102235.94;;;14.89;23.19
22440;BME280;11387;51.612;7.210;2023-02-28T09:49:47;102230.72;;;17.06;20.91
22440;BME280;11387;51.612;7.210;2023-02-28T09:52:19;102230.34;;;15.28;22.24
22440;BME280;11387;51.612;7.210;2023-02-28T09:54:51;102236.84;;;18.17;20.68
22440;BME280;11387;51.612;7.210;2023-02-28T09:57:25;102227.88;;;19.15;18.59
22440;BME280;11387;51.612;7.210;2023-02-28T10:00:05;102239.22;;;18.10;19.07
22440;BME280;11387;51.612;7.210;2023-02-28T10:03:38;102231.22;;;15.76;21.75
22440;BME280;11387;51.612;7.210;2023-02-28T10:06:42;102237.19;;;16.26;21.24
22440;BME280;11387;51.612;7.210;2023-02-28T10:09:17;102235.09;;;15.23;22.98
22440;BME280;11387;51.612;7.210;2023-02-28T10:12:26;102228.13;;;15.83;21.01
22440;BME280;11387;51.612;7.210;2023-02-28T10:14:58;102230.00;;;15.35;22.66
22440;BME280;11387;51.612;7.210;2023-02-28T10:17:51;102227.75;;;15.90;22.20
22440;BME280;11387;51.612;7.210;2023-02-28T10:20:37;102227.81;;;17.30;21.61
22440;BME280;11387;51.612;7.210;2023-02-28T10:23:20;102219.63;;;18.07;20.25
22440;BME280;11387;51.612;7.210;2023-02-28T10:26:05;102235.88;;;15.81;21.49
22440;BME280;11387;51.612;7.210;2023-02-28T10:28:39;102240.03;;;14.58;21.85
22440;BME280;11387;51.612;7.210;2023-02-28T10:31:19;102217.88;;;12.02;25.45
22440;BME280;11387;51.612;7.210;2023-02-28T10:33:51;102222.53;;;7.53;31.59
22440;BME280;11387;51.612;7.210;2023-02-28T10:36:29;102232.47;;;7.36;32.55
22440;BME280;11387;51.612;7.210;2023-02-28T10:39:34;102225.00;;;6.73;33.01
22440;BME280;11387;51.612;7.210;2023-02-28T10:42:21;102230.44;;;6.31;34.81
22440;BME280;11387;51.612;7.210;2023-02-28T10:45:11;102215.50;;;9.16;30.99
22440;BME280;11387;51.612;7.210;2023-02-28T10:47:52;102208.59;;;10.39;27.97
22440;BME280;11387;51.612;7.210;2023-02-28T10:50:33;102210.19;;;11.99;27.29
22440;BME280;11387;51.612;7.210;2023-02-28T10:53:50;102200.91;;;12.05;25.70
22440;BME280;11387;51.612;7.210;2023-02-28T10:56:36;102204.84;;;12.44;24.93
22440;BME280;11387;51.612;7.210;2023-02-28T10:59:30;102201.50;;;11.55;25.35
22440;BME280;11387;51.612;7.210;2023-02-28T11:02:29;102224.63;;;13.28;24.04
22440;BME280;11387;51.612;7.210;2023-02-28T11:05:25;102220.50;;;12.79;23.79
22440;BME280;11387;51.612;7.210;2023-02-28T11:07:55;102211.16;;;13.11;24.21
22440;BME280;11387;51.612;7.210;2023-02-28T11:10:28;102218.00;;;13.29;23.98
22440;BME280;11387;51.612;7.210;2023-02-28T11:13:47;102206.13;;;14.18;22.91
22440;BME280;11387;51.612;7.210;2023-02-28T11:16:17;102208.09;;;12.31;24.70
22440;BME280;11387;51.612;7.210;2023-02-28T11:18:52;102222.13;;;13.41;24.46
22440;BME280;11387;51.612;7.210;2023-02-28T11:21:31;102222.03;;;14.26;22.61
22440;BME280;11387;51.612;7.210;2023-02-28T11:24:27;102218.63;;;11.77;24.90
22440;BME280;11387;51.612;7.210;2023-02-28T11:27:01;102212.25;;;12.64;24.40
22440;BME280;11387;51.612;7.210;2023-02-28T11:29:57;102197.41;;;12.96;24.93
22440;BME280;11387;51.612;7.210;2023-02-28T11:32:27;102206.66;;;13.56;23.72
22440;BME280;11387;51.612;7.210;2023-02-28T11:35:13;102195.03;;;14.33;23.34
22440;BME280;11387;51.612;7.210;2023-02-28T11:37:48;102212.59;;;14.37;22.87
22440;BME280;11387;51.612;7.210;2023-02-28T11:40:28;102194.50;;;16.37;21.48
22440;BME280;11387;51.612;7.210;2023-02-28T11:43:21;102190.50;;;18.68;19.32
22440;BME280;11387;51.612;7.210;2023-02-28T11:46:06;102197.56;;;15.50;21.58
22440;BME280;11387;51.612;7.210;2023-02-28T11:49:13;102192.88;;;14.25;23.61
22440;BME280;11387;51.612;7.210;2023-02-28T11:52:18;102194.06;;;14.53;22.38
22440;BME280;11387;51.612;7.210;2023-02-28T11:55:19;102195.22;;;14.03;24.81
22440;BME280;11387;51.612;7.210;2023-02-28T11:57:59;102188.16;;;14.70;23.93
22440;BME280;11387;51.612;7.210;2023-02-28T12:01:09;102185.94;;;14.72;23.59
22440;BME280;11387;51.612;7.210;2023-02-28T12:04:10;102191.00;;;14.10;23.36
22440;BME280;11387;51.612;7.210;2023-02-28T12:07:03;102174.19;;;16.28;21.55
22440;BME280;11387;51.612;7.210;2023-02-28T12:10:10;102159.34;;;15.15;23.50
22440;BME280;11387;51.612;7.210;2023-02-28T12:12:53;102165.47;;;14.49;24.16
22440;BME280;11387;51.612;7.210;2023-02-28T12:15:52;102156.50;;;17.40;20.66
22440;BME280;11387;51.612;7.210;2023-02-28T12:21:33;102145.75;;;15.71;22.21
22440;BME280;11387;51.612;7.210;2023-02-28T12:24:23;102140.09;;;15.34;22.96
22440;BME280;11387;51.612;7.210;2023-02-28T12:27:05;102141.88;;;15.25;23.28
22440;BME280;11387;51.612;7.210;2023-02-28T12:29:41;102137.19;;;13.30;25.77
22440;BME280;11387;51.612;7.210;2023-02-28T12:32:38;102137.56;;;14.61;24.90
22440;BME280;11387;51.612;7.210;2023-02-28T12:35:16;102135.44;;;11.56;28.23
22440;BME280;11387;51.612;7.210;2023-02-28T12:38:21;102135.91;;;14.21;25.76
22440;BME280;11387;51.612;7.210;2023-02-28T12:40:53;102132.94;;;15.33;24.89
22440;BME280;11387;51.612;7.210;2023-02-28T12:43:32;102123.38;;;15.92;24.06
22440;BME280;11387;51.612;7.210;2023-02-28T12:46:05;102123.97;;;16.26;23.18
22440;BME280;11387;51.612;7.210;2023-02-28T12:48:42;102131.81;;;14.86;24.13
22440;BME280;11387;51.612;7.210;2023-02-28T12:51:17;102131.00;;;14.86;24.54
22440;BME280;11387;51.612;7.210;2023-02-28T12:53:59;102125.72;;;11.96;27.38
22440;BME280;11387;51.612;7.210;2023-02-28T12:56:43;102133.97;;;10.49;29.81
22440;BME280;11387;51.612;7.210;2023-02-28T12:59:24;102134.81;;;9.47;32.06
22440;BME280;11387;51.612;7.210;2023-02-28T13:05:10;102119.28;;;9.74;32.18
22440;BME280;11387;51.612;7.210;2023-02-28T13:08:30;102115.41;;;13.48;27.31
22440;BME280;11387;51.612;7.210;2023-02-28T13:11:23;102112.59;;;12.28;27.96
22440;BME280;11387;51.612;7.210;2023-02-28T13:13:59;102112.03;;;12.06;28.27
22440;BME280;11387;51.612;7.210;2023-02-28T13:16:53;102098.31;;;10.76;31.03
22440;BME280;11387;51.612;7.210;2023-02-28T13:19:31;102104.09;;;14.04;27.13
22440;BME280;11387;51.612;7.210;2023-02-28T13:22:01;102111.66;;;14.23;26.66
22440;BME280;11387;51.612;7.210;2023-02-28T13:24:47;102101.09;;;14.01;26.52
22440;BME280;11387;51.612;7.210;2023-02-28T13:27:35;102101.34;;;13.55;26.95
22440;BME280;11387;51.612;7.210;2023-02-28T13:33:32;102097.22;;;12.32;28.34
22440;BME280;11387;51.612;7.210;2023-02-28T13:36:09;102103.03;;;11.43;29.05
22440;BME280;11387;51.612;7.210;2023-02-28T13:38:41;102088.41;;;11.85;29.33
22440;BME280;11387;51.612;7.210;2023-02-28T13:44:23;102084.88;;;12.35;28.29